sensor_id;sensor_type;location;lat;lon;timestamp;temperature;humidity
32614;DHT22;19031;51.400;6.770;2023-06-26T00:02:12;21.80;99.90
32614;DHT22;19031;51.400;6.770;2023-06-26T00:04:38;21.70;99.90
32614;DHT22;19031;51.400;6.770;2023-06-26T00:07:04;21.70;99.90
32614;DHT22;19031;51.400;6.770;2023-06-26T00:09:30;21.70;99.90
32614;DHT22;19031;51.400;6.770;2023-06-26T00:11:55;21.70;99.90
32614;DHT22;19031;51.400;6.770;2023-06-26T00:14:21;21.60;99.90
32614;DHT22;19031;51.400;6.770;2023-06-26T00:16:47;21.60;99.90
32614;DHT22;19031;51.400;6.770;2023-06-26T00:19:15;21.60;99.90
32614;DHT22;19031;51.400;6.770;2023-06-26T00:21:40;21.50;99.90
32614;DHT22;19031;51.400;6.770;2023-06-26T00:24:06;21.50;99.90
32614;DHT22;19031;51.400;6.770;2023-06-26T00:26:32;21.40;99.90
32614;DHT22;19031;51.400;6.770;2023-06-26T00:28:57;21.40;99.90
32614;DHT22;19031;51.400;6.770;2023-06-26T00:31:23;21.30;99.90
32614;DHT22;19031;51.400;6.770;2023-06-26T00:33:48;21.20;99.90
32614;DHT22;19031;51.400;6.770;2023-06-26T00:36:14;21.20;99.90
32614;DHT22;19031;51.400;6.770;2023-06-26T00:38:39;21.20;99.90
32614;DHT22;19031;51.400;6.770;2023-06-26T00:41:05;21.10;99.90
32614;DHT22;19031;51.400;6.770;2023-06-26T00:43:37;21.10;99.90
32614;DHT22;19031;51.400;6.770;2023-06-26T00:46:03;21.10;99.90
32614;DHT22;19031;51.400;6.770;2023-06-26T00:48:29;21.10;99.90
32614;DHT22;19031;51.400;6.770;2023-06-26T00:50:54;20.90;99.90
32614;DHT22;19031;51.400;6.770;2023-06-26T00:53:20;21.00;99.90
32614;DHT22;19031;51.400;6.770;2023-06-26T00:55:47;21.00;99.90
32614;DHT22;19031;51.400;6.770;2023-06-26T00:58:13;20.90;99.90
32614;DHT22;19031;51.400;6.770;2023-06-26T01:00:39;20.90;99.90
32614;DHT22;19031;51.400;6.770;2023-06-26T01:03:04;20.90;99.90
32614;DHT22;19031;51.400;6.770;2023-06-26T01:05:30;20.80;99.90
32614;DHT22;19031;51.400;6.770;2023-06-26T01:07:57;20.80;99.90
32614;DHT22;19031;51.400;6.770;2023-06-26T01:10:24;20.70;99.90
32614;DHT22;19031;51.400;6.770;2023-06-26T01:12:50;20.70;99.90
32614;DHT22;19031;51.400;6.770;2023-06-26T01:15:15;20.60;99.90
32614;DHT22;19031;51.400;6.770;2023-06-26T01:17:41;20.60;99.90
32614;DHT22;19031;51.400;6.770;2023-06-26T01:20:10;20.60;99.90
32614;DHT22;19031;51.400;6.770;2023-06-26T01:23:05;20.60;99.90
32614;DHT22;19031;51.400;6.770;2023-06-26T01:25:35;20.50;99.90
32614;DHT22;19031;51.400;6.770;2023-06-26T01:28:05;20.60;99.90
32614;DHT22;19031;51.400;6.770;2023-06-26T01:30:32;20.50;99.90
32614;DHT22;19031;51.400;6.770;2023-06-26T01:33:00;20.50;99.90
32614;DHT22;19031;51.400;6.770;2023-06-26T01:35:27;20.40;99.90
32614;DHT22;19031;51.400;6.770;2023-06-26T01:37:52;20.40;99.90
32614;DHT22;19031;51.400;6.770;2023-06-26T01:40:18;20.30;99.90
32614;DHT22;19031;51.400;6.770;2023-06-26T01:42:43;20.40;99.90
32614;DHT22;19031;51.400;6.770;2023-06-26T01:45:17;20.30;99.90
32614;DHT22;19031;51.400;6.770;2023-06-26T01:47:49;20.30;99.90
32614;DHT22;19031;51.400;6.770;2023-06-26T01:50:20;20.20;99.90
32614;DHT22;19031;51.400;6.770;2023-06-26T01:53:04;20.30;99.90
32614;DHT22;19031;51.400;6.770;2023-06-26T01:56:00;20.30;99.90
32614;DHT22;19031;51.400;6.770;2023-06-26T01:58:29;20.10;99.90
32614;DHT22;19031;51.400;6.770;2023-06-26T02:00:57;20.10;99.90
32614;DHT22;19031;51.400;6.770;2023-06-26T02:03:22;20.10;99.90
32614;DHT22;19031;51.400;6.770;2023-06-26T02:05:50;20.10;99.90
32614;DHT22;19031;51.400;6.770;2023-06-26T02:08:16;20.10;99.90
32614;DHT22;19031;51.400;6.770;2023-06-26T02:10:42;20.10;99.90
32614;DHT22;19031;51.400;6.770;2023-06-26T02:13:07;20.00;99.90
32614;DHT22;19031;51.400;6.770;2023-06-26T02:15:33;20.10;99.90
32614;DHT22;19031;51.400;6.770;2023-06-26T02:17:58;20.00;99.90
32614;DHT22;19031;51.400;6.770;2023-06-26T02:20:24;20.10;99.90
32614;DHT22;19031;51.400;6.770;2023-06-26T02:22:49;20.00;99.90
32614;DHT22;19031;51.400;6.770;2023-06-26T02:25:15;20.10;99.90
32614;DHT22;19031;51.400;6.770;2023-06-26T02:27:42;20.00;99.90
32614;DHT22;19031;51.400;6.770;2023-06-26T02:30:08;20.10;99.90
32614;DHT22;19031;51.400;6.770;2023-06-26T02:32:34;20.10;99.90
32614;DHT22;19031;51.400;6.770;2023-06-26T02:35:00;20.00;99.90
32614;DHT22;19031;51.400;6.770;2023-06-26T02:37:26;20.10;99.90
32614;DHT22;19031;51.400;6.770;2023-06-26T02:39:51;20.10;99.90
32614;DHT22;19031;51.400;6.770;2023-06-26T02:42:17;20.10;99.90
32614;DHT22;19031;51.400;6.770;2023-06-26T02:44:42;20.10;99.90
32614;DHT22;19031;51.400;6.770;2023-06-26T02:47:08;20.20;99.90
32614;DHT22;19031;51.400;6.770;2023-06-26T02:49:33;20.30;99.90
32614;DHT22;19031;51.400;6.770;2023-06-26T02:51:59;20.30;99.90
32614;DHT22;19031;51.400;6.770;2023-06-26T02:54:24;20.30;99.90
32614;DHT22;19031;51.400;6.770;2023-06-26T02:56:50;20.30;99.90
32614;DHT22;19031;51.400;6.770;2023-06-26T02:59:16;20.40;99.90
32614;DHT22;19031;51.400;6.770;2023-06-26T03:01:41;20.40;99.90
32614;DHT22;19031;51.400;6.770;2023-06-26T03:04:07;20.40;99.90
32614;DHT22;19031;51.400;6.770;2023-06-26T03:06:33;20.40;99.90
32614;DHT22;19031;51.400;6.770;2023-06-26T03:08:59;20.50;99.90
32614;DHT22;19031;51.400;6.770;2023-06-26T03:11:24;20.60;99.90
32614;DHT22;19031;51.400;6.770;2023-06-26T03:13:50;20.70;99.90
32614;DHT22;19031;51.400;6.770;2023-06-26T03:16:15;20.80;99.90
32614;DHT22;19031;51.400;6.770;2023-06-26T03:18:41;20.90;99.90
32614;DHT22;19031;51.400;6.770;2023-06-26T03:21:07;21.00;99.90
32614;DHT22;19031;51.400;6.770;2023-06-26T03:23:34;21.00;99.90
32614;DHT22;19031;51.400;6.770;2023-06-26T03:25:59;21.10;99.90
32614;DHT22;19031;51.400;6.770;2023-06-26T03:28:25;21.20;99.90
32614;DHT22;19031;51.400;6.770;2023-06-26T03:30:51;21.10;99.90
32614;DHT22;19031;51.400;6.770;2023-06-26T03:33:16;21.20;99.90
32614;DHT22;19031;51.400;6.770;2023-06-26T03:35:42;21.30;99.90
32614;DHT22;19031;51.400;6.770;2023-06-26T03:38:07;21.30;99.90
32614;DHT22;19031;51.400;6.770;2023-06-26T03:40:33;21.30;99.90
32614;DHT22;19031;51.400;6.770;2023-06-26T03:42:58;21.30;99.90
32614;DHT22;19031;51.400;6.770;2023-06-26T03:45:24;21.30;99.90
32614;DHT22;19031;51.400;6.770;2023-06-26T03:47:49;21.40;99.90
32614;DHT22;19031;51.400;6.770;2023-06-26T03:50:18;21.30;99.90
32614;DHT22;19031;51.400;6.770;2023-06-26T03:52:45;21.40;99.90
32614;DHT22;19031;51.400;6.770;2023-06-26T03:55:11;21.50;99.90
32614;DHT22;19031;51.400;6.770;2023-06-26T03:57:36;21.50;99.90
32614;DHT22;19031;51.400;6.770;2023-06-26T04:00:04;21.50;99.90
32614;DHT22;19031;51.400;6.770;2023-06-26T04:02:38;21.40;99.90
32614;DHT22;19031;51.400;6.770;2023-06-26T04:05:04;21.40;99.90
32614;DHT22;19031;51.400;6.770;2023-06-26T04:07:30;21.50;99.90
32614;DHT22;19031;51.400;6.770;2023-06-26T04:09:57;21.50;99.90
32614;DHT22;19031;51.400;6.770;2023-06-26T04:12:22;21.60;99.90
32614;DHT22;19031;51.400;6.770;2023-06-26T04:14:48;21.70;99.90
32614;DHT22;19031;51.400;6.770;2023-06-26T04:17:13;21.70;99.90
32614;DHT22;19031;51.400;6.770;2023-06-26T04:19:39;21.80;99.90
32614;DHT22;19031;51.400;6.770;2023-06-26T04:22:05;21.80;99.90
32614;DHT22;19031;51.400;6.770;2023-06-26T04:24:30;21.80;99.90
32614;DHT22;19031;51.400;6.770;2023-06-26T04:26:56;21.80;99.90
32614;DHT22;19031;51.400;6.770;2023-06-26T04:29:23;21.90;99.90
32614;DHT22;19031;51.400;6.770;2023-06-26T04:31:51;21.90;99.90
32614;DHT22;19031;51.400;6.770;2023-06-26T04:34:17;22.00;99.90
32614;DHT22;19031;51.400;6.770;2023-06-26T04:36:42;22.00;99.90
32614;DHT22;19031;51.400;6.770;2023-06-26T04:39:11;22.10;99.90
32614;DHT22;19031;51.400;6.770;2023-06-26T04:41:37;22.10;99.90
32614;DHT22;19031;51.400;6.770;2023-06-26T04:44:03;22.00;99.90
32614;DHT22;19031;51.400;6.770;2023-06-26T04:46:28;22.10;99.90
32614;DHT22;19031;51.400;6.770;2023-06-26T04:48:54;22.20;99.90
32614;DHT22;19031;51.400;6.770;2023-06-26T04:51:20;22.30;99.90
32614;DHT22;19031;51.400;6.770;2023-06-26T04:53:46;22.40;99.90
32614;DHT22;19031;51.400;6.770;2023-06-26T04:56:11;22.50;99.90
32614;DHT22;19031;51.400;6.770;2023-06-26T04:58:37;22.40;99.90
32614;DHT22;19031;51.400;6.770;2023-06-26T05:01:03;22.40;99.90
32614;DHT22;19031;51.400;6.770;2023-06-26T05:03:32;22.40;99.90
32614;DHT22;19031;51.400;6.770;2023-06-26T05:05:57;22.50;99.90
32614;DHT22;19031;51.400;6.770;2023-06-26T05:08:24;22.50;99.90
32614;DHT22;19031;51.400;6.770;2023-06-26T05:10:52;22.40;99.90
32614;DHT22;19031;51.400;6.770;2023-06-26T05:13:19;22.30;99.90
32614;DHT22;19031;51.400;6.770;2023-06-26T05:15:45;22.30;99.90
32614;DHT22;19031;51.400;6.770;2023-06-26T05:18:11;22.30;99.90
32614;DHT22;19031;51.400;6.770;2023-06-26T05:20:37;22.40;99.90
32614;DHT22;19031;51.400;6.770;2023-06-26T05:23:03;22.30;99.90
32614;DHT22;19031;51.400;6.770;2023-06-26T05:25:30;22.30;99.90
32614;DHT22;19031;51.400;6.770;2023-06-26T05:27:57;22.10;99.90
32614;DHT22;19031;51.400;6.770;2023-06-26T05:30:23;22.10;99.90
32614;DHT22;19031;51.400;6.770;2023-06-26T05:32:52;22.40;99.90
32614;DHT22;19031;51.400;6.770;2023-06-26T05:35:18;22.30;99.90
32614;DHT22;19031;51.400;6.770;2023-06-26T05:37:45;22.30;99.90
32614;DHT22;19031;51.400;6.770;2023-06-26T05:40:12;22.30;99.90
32614;DHT22;19031;51.400;6.770;2023-06-26T05:42:38;22.40;99.90
32614;DHT22;19031;51.400;6.770;2023-06-26T05:45:03;22.40;99.90
32614;DHT22;19031;51.400;6.770;2023-06-26T05:47:29;22.40;99.90
32614;DHT22;19031;51.400;6.770;2023-06-26T05:49:55;22.40;99.90
32614;DHT22;19031;51.400;6.770;2023-06-26T05:52:21;22.50;99.90
32614;DHT22;19031;51.400;6.770;2023-06-26T05:54:46;22.40;99.90
32614;DHT22;19031;51.400;6.770;2023-06-26T05:57:13;22.40;99.90
32614;DHT22;19031;51.400;6.770;2023-06-26T05:59:40;22.40;99.90
32614;DHT22;19031;51.400;6.770;2023-06-26T06:02:06;22.20;99.90
32614;DHT22;19031;51.400;6.770;2023-06-26T06:04:32;22.30;99.90
32614;DHT22;19031;51.400;6.770;2023-06-26T06:06:57;22.50;99.90
32614;DHT22;19031;51.400;6.770;2023-06-26T06:09:23;22.60;99.90
32614;DHT22;19031;51.400;6.770;2023-06-26T06:11:48;22.70;99.90
32614;DHT22;19031;51.400;6.770;2023-06-26T06:14:14;22.70;99.90
32614;DHT22;19031;51.400;6.770;2023-06-26T06:16:39;22.50;99.90
32614;DHT22;19031;51.400;6.770;2023-06-26T06:19:05;22.40;99.90
32614;DHT22;19031;51.400;6.770;2023-06-26T06:21:33;22.40;99.90
32614;DHT22;19031;51.400;6.770;2023-06-26T06:23:58;22.30;99.90
32614;DHT22;19031;51.400;6.770;2023-06-26T06:26:24;22.40;99.90
32614;DHT22;19031;51.400;6.770;2023-06-26T06:28:49;22.30;99.90
32614;DHT22;19031;51.400;6.770;2023-06-26T06:31:15;22.40;99.90
32614;DHT22;19031;51.400;6.770;2023-06-26T06:33:40;22.40;99.90
32614;DHT22;19031;51.400;6.770;2023-06-26T06:36:06;22.40;99.90
32614;DHT22;19031;51.400;6.770;2023-06-26T06:38:31;22.50;99.90
32614;DHT22;19031;51.400;6.770;2023-06-26T06:40:57;22.60;99.90
32614;DHT22;19031;51.400;6.770;2023-06-26T06:43:22;22.80;99.90
32614;DHT22;19031;51.400;6.770;2023-06-26T06:45:48;22.90;99.90
32614;DHT22;19031;51.400;6.770;2023-06-26T06:48:14;23.00;99.90
32614;DHT22;19031;51.400;6.770;2023-06-26T06:50:39;23.10;99.90
32614;DHT22;19031;51.400;6.770;2023-06-26T06:53:05;23.30;99.90
32614;DHT22;19031;51.400;6.770;2023-06-26T06:55:30;23.20;99.90
32614;DHT22;19031;51.400;6.770;2023-06-26T06:57:56;23.30;99.90
32614;DHT22;19031;51.400;6.770;2023-06-26T07:00:21;23.50;99.90
32614;DHT22;19031;51.400;6.770;2023-06-26T07:02:47;23.60;99.90
32614;DHT22;19031;51.400;6.770;2023-06-26T07:05:13;23.70;99.90
32614;DHT22;19031;51.400;6.770;2023-06-26T07:07:39;23.70;99.90
32614;DHT22;19031;51.400;6.770;2023-06-26T07:10:10;23.60;99.90
32614;DHT22;19031;51.400;6.770;2023-06-26T07:12:36;23.60;99.90
32614;DHT22;19031;51.400;6.770;2023-06-26T07:15:03;23.40;99.90
32614;DHT22;19031;51.400;6.770;2023-06-26T07:17:30;23.30;99.90
32614;DHT22;19031;51.400;6.770;2023-06-26T07:19:56;23.30;99.90
32614;DHT22;19031;51.400;6.770;2023-06-26T07:22:21;23.50;99.90
32614;DHT22;19031;51.400;6.770;2023-06-26T07:24:47;23.60;99.90
32614;DHT22;19031;51.400;6.770;2023-06-26T07:27:17;24.00;99.90
32614;DHT22;19031;51.400;6.770;2023-06-26T07:29:45;24.10;99.90
32614;DHT22;19031;51.400;6.770;2023-06-26T07:32:11;24.50;99.90
32614;DHT22;19031;51.400;6.770;2023-06-26T07:34:36;24.90;99.90
32614;DHT22;19031;51.400;6.770;2023-06-26T07:37:02;25.40;99.90
32614;DHT22;19031;51.400;6.770;2023-06-26T07:39:28;25.80;99.90
32614;DHT22;19031;51.400;6.770;2023-06-26T07:41:54;26.10;99.90
32614;DHT22;19031;51.400;6.770;2023-06-26T07:44:21;26.10;99.90
32614;DHT22;19031;51.400;6.770;2023-06-26T07:46:46;26.20;99.90
32614;DHT22;19031;51.400;6.770;2023-06-26T07:49:12;26.20;99.90
32614;DHT22;19031;51.400;6.770;2023-06-26T07:51:38;26.20;99.90
32614;DHT22;19031;51.400;6.770;2023-06-26T07:54:03;26.10;99.90
32614;DHT22;19031;51.400;6.770;2023-06-26T07:56:29;26.20;99.90
32614;DHT22;19031;51.400;6.770;2023-06-26T07:58:55;26.10;99.90
32614;DHT22;19031;51.400;6.770;2023-06-26T08:01:23;26.10;99.90
32614;DHT22;19031;51.400;6.770;2023-06-26T08:03:49;25.60;99.90
32614;DHT22;19031;51.400;6.770;2023-06-26T08:06:14;25.90;99.90
32614;DHT22;19031;51.400;6.770;2023-06-26T08:08:40;26.00;99.90
32614;DHT22;19031;51.400;6.770;2023-06-26T08:11:06;26.10;99.90
32614;DHT22;19031;51.400;6.770;2023-06-26T08:13:31;26.10;99.90
32614;DHT22;19031;51.400;6.770;2023-06-26T08:15:57;26.10;99.90
32614;DHT22;19031;51.400;6.770;2023-06-26T08:18:22;26.00;99.90
32614;DHT22;19031;51.400;6.770;2023-06-26T08:20:48;25.60;99.90
32614;DHT22;19031;51.400;6.770;2023-06-26T08:23:14;25.60;99.90
32614;DHT22;19031;51.400;6.770;2023-06-26T08:25:39;25.20;99.90
32614;DHT22;19031;51.400;6.770;2023-06-26T08:28:05;25.30;99.90
32614;DHT22;19031;51.400;6.770;2023-06-26T08:30:32;24.90;99.90
32614;DHT22;19031;51.400;6.770;2023-06-26T08:32:58;25.10;99.90
32614;DHT22;19031;51.400;6.770;2023-06-26T08:35:23;25.40;99.90
32614;DHT22;19031;51.400;6.770;2023-06-26T08:37:49;25.40;99.90
32614;DHT22;19031;51.400;6.770;2023-06-26T08:40:18;25.60;99.90
32614;DHT22;19031;51.400;6.770;2023-06-26T08:42:46;25.90;99.90
32614;DHT22;19031;51.400;6.770;2023-06-26T08:45:12;25.80;99.90
32614;DHT22;19031;51.400;6.770;2023-06-26T08:47:38;26.20;99.90
32614;DHT22;19031;51.400;6.770;2023-06-26T08:50:14;26.10;99.90
32614;DHT22;19031;51.400;6.770;2023-06-26T08:53:11;26.30;99.90
32614;DHT22;19031;51.400;6.770;2023-06-26T08:55:41;26.30;99.90
32614;DHT22;19031;51.400;6.770;2023-06-26T08:58:07;26.20;99.90
32614;DHT22;19031;51.400;6.770;2023-06-26T09:00:33;26.20;99.90
32614;DHT22;19031;51.400;6.770;2023-06-26T09:02:59;26.30;99.90
32614;DHT22;19031;51.400;6.770;2023-06-26T09:05:26;26.40;99.90
32614;DHT22;19031;51.400;6.770;2023-06-26T09:07:57;26.80;99.90
32614;DHT22;19031;51.400;6.770;2023-06-26T09:10:23;26.90;99.90
32614;DHT22;19031;51.400;6.770;2023-06-26T09:12:50;27.10;99.90
32614;DHT22;19031;51.400;6.770;2023-06-26T09:15:16;27.30;99.90
32614;DHT22;19031;51.400;6.770;2023-06-26T09:17:44;27.20;99.90
32614;DHT22;19031;51.400;6.770;2023-06-26T09:20:10;27.60;99.90
32614;DHT22;19031;51.400;6.770;2023-06-26T09:22:41;27.70;99.90
32614;DHT22;19031;51.400;6.770;2023-06-26T09:25:08;28.30;99.90
32614;DHT22;19031;51.400;6.770;2023-06-26T09:27:35;28.80;99.90
32614;DHT22;19031;51.400;6.770;2023-06-26T09:30:05;29.20;99.70
32614;DHT22;19031;51.400;6.770;2023-06-26T09:32:36;29.60;98.90
32614;DHT22;19031;51.400;6.770;2023-06-26T09:35:03;29.50;98.50
32614;DHT22;19031;51.400;6.770;2023-06-26T09:37:29;29.10;98.00
32614;DHT22;19031;51.400;6.770;2023-06-26T09:39:55;29.50;97.80
32614;DHT22;19031;51.400;6.770;2023-06-26T09:42:21;29.40;97.30
32614;DHT22;19031;51.400;6.770;2023-06-26T09:44:49;29.60;97.20
32614;DHT22;19031;51.400;6.770;2023-06-26T09:47:17;29.10;97.20
32614;DHT22;19031;51.400;6.770;2023-06-26T09:49:44;28.80;98.00
32614;DHT22;19031;51.400;6.770;2023-06-26T09:52:13;29.10;97.40
32614;DHT22;19031;51.400;6.770;2023-06-26T09:54:40;29.00;98.00
32614;DHT22;19031;51.400;6.770;2023-06-26T09:57:10;28.70;97.30
32614;DHT22;19031;51.400;6.770;2023-06-26T09:59:36;28.30;97.90
32614;DHT22;19031;51.400;6.770;2023-06-26T10:02:02;27.90;97.40
32614;DHT22;19031;51.400;6.770;2023-06-26T10:04:28;27.40;98.00
32614;DHT22;19031;51.400;6.770;2023-06-26T10:06:58;27.50;98.20
32614;DHT22;19031;51.400;6.770;2023-06-26T10:09:24;27.00;98.60
32614;DHT22;19031;51.400;6.770;2023-06-26T10:12:03;27.20;98.90
32614;DHT22;19031;51.400;6.770;2023-06-26T10:14:34;27.40;98.10
32614;DHT22;19031;51.400;6.770;2023-06-26T10:17:03;27.20;98.80
32614;DHT22;19031;51.400;6.770;2023-06-26T10:19:29;27.20;98.40
32614;DHT22;19031;51.400;6.770;2023-06-26T10:21:58;27.60;99.20
32614;DHT22;19031;51.400;6.770;2023-06-26T10:24:26;28.10;98.30
32614;DHT22;19031;51.400;6.770;2023-06-26T10:26:58;28.60;97.00
32614;DHT22;19031;51.400;6.770;2023-06-26T10:29:25;29.00;97.70
32614;DHT22;19031;51.400;6.770;2023-06-26T10:31:53;29.40;96.70
32614;DHT22;19031;51.400;6.770;2023-06-26T10:34:21;29.40;95.30
32614;DHT22;19031;51.400;6.770;2023-06-26T10:36:47;29.60;95.40
32614;DHT22;19031;51.400;6.770;2023-06-26T10:39:13;30.10;94.60
32614;DHT22;19031;51.400;6.770;2023-06-26T10:41:40;30.60;93.70
32614;DHT22;19031;51.400;6.770;2023-06-26T10:44:10;30.50;92.80
32614;DHT22;19031;51.400;6.770;2023-06-26T10:46:52;29.30;94.00
32614;DHT22;19031;51.400;6.770;2023-06-26T10:49:19;28.60;93.60
32614;DHT22;19031;51.400;6.770;2023-06-26T10:51:50;28.20;95.00
32614;DHT22;19031;51.400;6.770;2023-06-26T10:54:17;27.90;96.10
32614;DHT22;19031;51.400;6.770;2023-06-26T10:56:47;28.10;95.10
32614;DHT22;19031;51.400;6.770;2023-06-26T10:59:16;27.40;95.50
32614;DHT22;19031;51.400;6.770;2023-06-26T11:01:43;26.90;95.80
32614;DHT22;19031;51.400;6.770;2023-06-26T11:04:09;26.80;96.60
32614;DHT22;19031;51.400;6.770;2023-06-26T11:06:36;27.00;97.10
32614;DHT22;19031;51.400;6.770;2023-06-26T11:14:19;28.60;93.70
32614;DHT22;19031;51.400;6.770;2023-06-26T11:16:45;28.30;91.90
32614;DHT22;19031;51.400;6.770;2023-06-26T11:19:11;28.10;91.50
32614;DHT22;19031;51.400;6.770;2023-06-26T11:21:40;28.20;92.30
32614;DHT22;19031;51.400;6.770;2023-06-26T11:24:09;28.70;91.90
32614;DHT22;19031;51.400;6.770;2023-06-26T11:26:43;29.20;91.70
32614;DHT22;19031;51.400;6.770;2023-06-26T11:29:10;29.20;90.60
32614;DHT22;19031;51.400;6.770;2023-06-26T11:31:37;29.40;89.40
32614;DHT22;19031;51.400;6.770;2023-06-26T11:34:08;29.30;87.40
32614;DHT22;19031;51.400;6.770;2023-06-26T11:36:35;29.00;84.30
32614;DHT22;19031;51.400;6.770;2023-06-26T11:39:04;29.10;85.80
32614;DHT22;19031;51.400;6.770;2023-06-26T11:41:38;29.30;78.30
32614;DHT22;19031;51.400;6.770;2023-06-26T11:44:07;29.80;77.70
32614;DHT22;19031;51.400;6.770;2023-06-26T11:46:34;29.80;76.90
32614;DHT22;19031;51.400;6.770;2023-06-26T11:49:03;29.50;77.60
32614;DHT22;19031;51.400;6.770;2023-06-26T11:51:29;28.90;77.80
32614;DHT22;19031;51.400;6.770;2023-06-26T11:53:55;27.50;79.80
32614;DHT22;19031;51.400;6.770;2023-06-26T11:56:20;27.10;81.00
32614;DHT22;19031;51.400;6.770;2023-06-26T11:59:03;27.30;90.60
32614;DHT22;19031;51.400;6.770;2023-06-26T12:01:42;27.50;87.10
32614;DHT22;19031;51.400;6.770;2023-06-26T12:04:13;27.80;83.80
32614;DHT22;19031;51.400;6.770;2023-06-26T12:06:42;27.70;77.40
32614;DHT22;19031;51.400;6.770;2023-06-26T12:09:09;27.70;74.70
32614;DHT22;19031;51.400;6.770;2023-06-26T12:11:38;28.00;78.20
32614;DHT22;19031;51.400;6.770;2023-06-26T12:14:08;28.20;70.80
32614;DHT22;19031;51.400;6.770;2023-06-26T12:16:35;28.30;71.90
32614;DHT22;19031;51.400;6.770;2023-06-26T12:19:05;28.90;75.00
32614;DHT22;19031;51.400;6.770;2023-06-26T12:24:07;28.90;66.80
32614;DHT22;19031;51.400;6.770;2023-06-26T12:26:34;28.70;71.20
32614;DHT22;19031;51.400;6.770;2023-06-26T12:29:06;29.40;73.10
32614;DHT22;19031;51.400;6.770;2023-06-26T12:31:33;29.50;68.20
32614;DHT22;19031;51.400;6.770;2023-06-26T12:34:00;29.10;68.50
32614;DHT22;19031;51.400;6.770;2023-06-26T12:36:26;28.80;69.60
32614;DHT22;19031;51.400;6.770;2023-06-26T12:38:55;28.90;67.60
32614;DHT22;19031;51.400;6.770;2023-06-26T12:41:24;28.80;67.50
32614;DHT22;19031;51.400;6.770;2023-06-26T12:43:49;28.60;66.20
32614;DHT22;19031;51.400;6.770;2023-06-26T12:46:35;28.70;65.00
32614;DHT22;19031;51.400;6.770;2023-06-26T12:49:01;28.60;65.30
32614;DHT22;19031;51.400;6.770;2023-06-26T12:51:27;28.80;66.90
32614;DHT22;19031;51.400;6.770;2023-06-26T12:53:53;29.00;64.40
32614;DHT22;19031;51.400;6.770;2023-06-26T12:56:18;29.30;63.20
32614;DHT22;19031;51.400;6.770;2023-06-26T12:58:45;29.60;63.10
32614;DHT22;19031;51.400;6.770;2023-06-26T13:01:11;29.70;60.90
32614;DHT22;19031;51.400;6.770;2023-06-26T13:03:39;29.40;60.50
32614;DHT22;19031;51.400;6.770;2023-06-26T13:06:04;29.60;62.00
32614;DHT22;19031;51.400;6.770;2023-06-26T13:08:30;29.60;59.70
32614;DHT22;19031;51.400;6.770;2023-06-26T13:10:55;29.70;61.00
32614;DHT22;19031;51.400;6.770;2023-06-26T13:13:21;29.60;60.60
32614;DHT22;19031;51.400;6.770;2023-06-26T13:15:47;30.00;60.00
32614;DHT22;19031;51.400;6.770;2023-06-26T13:18:12;29.90;59.60
32614;DHT22;19031;51.400;6.770;2023-06-26T13:20:38;30.10;60.70
32614;DHT22;19031;51.400;6.770;2023-06-26T13:23:04;29.80;60.10
32614;DHT22;19031;51.400;6.770;2023-06-26T13:25:29;29.00;61.20
32614;DHT22;19031;51.400;6.770;2023-06-26T13:27:55;28.80;62.10
32614;DHT22;19031;51.400;6.770;2023-06-26T13:30:21;28.90;62.40
32614;DHT22;19031;51.400;6.770;2023-06-26T13:32:47;28.70;61.70
32614;DHT22;19031;51.400;6.770;2023-06-26T13:35:12;28.30;62.10
32614;DHT22;19031;51.400;6.770;2023-06-26T13:37:40;28.00;63.00
32614;DHT22;19031;51.400;6.770;2023-06-26T13:40:08;28.40;62.20
32614;DHT22;19031;51.400;6.770;2023-06-26T13:42:35;28.70;60.90
32614;DHT22;19031;51.400;6.770;2023-06-26T13:45:02;28.70;60.60
32614;DHT22;19031;51.400;6.770;2023-06-26T13:47:28;28.30;61.40
32614;DHT22;19031;51.400;6.770;2023-06-26T13:49:54;27.70;61.60
32614;DHT22;19031;51.400;6.770;2023-06-26T13:52:19;27.80;62.80
32614;DHT22;19031;51.400;6.770;2023-06-26T13:54:45;28.00;65.10
32614;DHT22;19031;51.400;6.770;2023-06-26T13:57:10;28.50;63.40
32614;DHT22;19031;51.400;6.770;2023-06-26T13:59:38;29.00;62.30
32614;DHT22;19031;51.400;6.770;2023-06-26T14:02:05;29.60;61.20
32614;DHT22;19031;51.400;6.770;2023-06-26T14:04:31;29.50;60.70
32614;DHT22;19031;51.400;6.770;2023-06-26T14:06:57;29.70;61.40
32614;DHT22;19031;51.400;6.770;2023-06-26T14:09:23;30.10;59.50
32614;DHT22;19031;51.400;6.770;2023-06-26T14:11:48;29.90;57.10
32614;DHT22;19031;51.400;6.770;2023-06-26T14:14:14;29.10;57.70
32614;DHT22;19031;51.400;6.770;2023-06-26T14:16:39;28.70;57.80
32614;DHT22;19031;51.400;6.770;2023-06-26T14:19:05;28.80;58.30
32614;DHT22;19031;51.400;6.770;2023-06-26T14:21:31;28.80;59.30
32614;DHT22;19031;51.400;6.770;2023-06-26T14:23:58;29.00;60.50
32614;DHT22;19031;51.400;6.770;2023-06-26T14:26:24;29.30;59.90
32614;DHT22;19031;51.400;6.770;2023-06-26T14:28:49;29.00;60.50
32614;DHT22;19031;51.400;6.770;2023-06-26T14:31:15;29.10;59.30
32614;DHT22;19031;51.400;6.770;2023-06-26T14:33:40;29.00;59.20
32614;DHT22;19031;51.400;6.770;2023-06-26T14:36:06;29.00;58.20
32614;DHT22;19031;51.400;6.770;2023-06-26T14:38:32;28.80;59.60
32614;DHT22;19031;51.400;6.770;2023-06-26T14:40:57;28.40;61.10
32614;DHT22;19031;51.400;6.770;2023-06-26T14:43:23;28.50;59.70
32614;DHT22;19031;51.400;6.770;2023-06-26T14:45:50;28.20;60.60
32614;DHT22;19031;51.400;6.770;2023-06-26T14:48:15;28.00;59.60
32614;DHT22;19031;51.400;6.770;2023-06-26T14:50:41;27.80;61.60
32614;DHT22;19031;51.400;6.770;2023-06-26T14:53:06;27.80;60.50
32614;DHT22;19031;51.400;6.770;2023-06-26T14:55:32;27.50;61.00
32614;DHT22;19031;51.400;6.770;2023-06-26T14:57:57;27.40;61.20
32614;DHT22;19031;51.400;6.770;2023-06-26T15:00:23;27.30;61.10
32614;DHT22;19031;51.400;6.770;2023-06-26T15:02:49;27.60;58.60
32614;DHT22;19031;51.400;6.770;2023-06-26T15:05:18;27.40;60.30
32614;DHT22;19031;51.400;6.770;2023-06-26T15:07:44;27.60;58.40
32614;DHT22;19031;51.400;6.770;2023-06-26T15:10:09;27.80;59.50
32614;DHT22;19031;51.400;6.770;2023-06-26T15:12:35;27.40;58.70
32614;DHT22;19031;51.400;6.770;2023-06-26T15:15:01;27.00;59.30
32614;DHT22;19031;51.400;6.770;2023-06-26T15:17:26;27.00;59.00
32614;DHT22;19031;51.400;6.770;2023-06-26T15:19:52;27.40;60.70
32614;DHT22;19031;51.400;6.770;2023-06-26T15:22:18;27.40;60.00
32614;DHT22;19031;51.400;6.770;2023-06-26T15:24:43;27.30;58.90
32614;DHT22;19031;51.400;6.770;2023-06-26T15:27:09;27.10;60.80
32614;DHT22;19031;51.400;6.770;2023-06-26T15:29:34;27.20;62.60
32614;DHT22;19031;51.400;6.770;2023-06-26T15:32:00;27.20;62.80
32614;DHT22;19031;51.400;6.770;2023-06-26T15:34:25;27.10;61.30
32614;DHT22;19031;51.400;6.770;2023-06-26T15:36:51;26.90;62.90